Time;durP1;ratioP1;P1;durP2;ratioP2;P2;SDS_P1;SDS_P2;PMS_P1;PMS_P2;Temp;Humidity;BMP_temperature;BMP_pressure;BME280_temperature;BME280_humidity;BME280_pressure;Samples;Min_cycle;Max_cycle;Signal;HPM_P1;HPM_P2
2022/11/28 00:02:05;;;;;;;20.10;10.23;;;;;;;4.50;100.00;101161.28;7386271;19;20423;-53
2022/11/28 00:04:34;;;;;;;24.37;10.03;;;;;;;4.37;100.00;101160.38;7393109;19;20396;-52
2022/11/28 00:07:04;;;;;;;16.63;9.13;;;;;;;4.39;100.00;101166.47;7391853;19;20494;-55
2022/11/28 00:09:33;;;;;;;23.77;9.80;;;;;;;4.37;100.00;101177.34;7393796;19;20388;-57
2022/11/28 00:12:03;;;;;;;15.77;8.87;;;;;;;4.46;100.00;101163.59;7390514;19;20424;-55
2022/11/28 00:14:35;;;;;;;20.00;9.37;;;;;;;4.42;100.00;101156.47;7393832;19;20946;-59
2022/11/28 00:17:04;;;;;;;15.97;9.03;;;;;;;4.42;100.00;101141.13;7389208;19;20414;-57
2022/11/28 00:19:34;;;;;;;19.80;9.00;;;;;;;4.32;100.00;101146.38;7394450;19;20380;-56
2022/11/28 00:22:03;;;;;;;24.17;9.90;;;;;;;4.28;100.00;101157.13;7390355;19;20434;-53
2022/11/28 00:24:33;;;;;;;14.53;8.30;;;;;;;4.42;100.00;101153.91;7394285;19;20387;-57
2022/11/28 00:27:02;;;;;;;17.53;9.30;;;;;;;4.44;100.00;101144.72;7391163;19;20411;-57
2022/11/28 00:29:34;;;;;;;20.63;9.00;;;;;;;4.44;100.00;101149.81;7392548;19;20384;-56
2022/11/28 00:32:03;;;;;;;16.87;9.07;;;;;;;4.39;100.00;101153.69;7390588;19;20770;-56
2022/11/28 00:34:33;;;;;;;16.97;9.27;;;;;;;4.36;100.00;101145.78;7393447;19;20456;-58
2022/11/28 00:37:03;;;;;;;14.63;8.30;;;;;;;4.38;100.00;101148.47;7391018;19;20952;-58
2022/11/28 00:39:32;;;;;;;17.17;9.13;;;;;;;4.30;100.00;101147.91;7393451;19;20402;-58
2022/11/28 00:42:02;;;;;;;18.33;9.07;;;;;;;4.40;100.00;101147.81;7389576;19;20415;-56
2022/11/28 00:44:31;;;;;;;17.70;8.80;;;;;;;4.44;100.00;101143.81;7394262;19;20410;-58
2022/11/28 00:47:03;;;;;;;21.30;11.67;;;;;;;4.41;100.00;101141.03;7390755;19;20421;-53
2022/11/28 00:49:33;;;;;;;14.97;8.73;;;;;;;4.49;100.00;101141.56;7393447;19;20372;-54
2022/11/28 00:52:02;;;;;;;16.17;8.90;;;;;;;4.34;100.00;101147.34;7389878;19;20411;-53
2022/11/28 00:54:32;;;;;;;14.50;8.20;;;;;;;4.38;100.00;101139.16;7392931;19;20383;-56
2022/11/28 00:57:01;;;;;;;20.70;8.67;;;;;;;4.36;100.00;101135.56;7390517;19;20435;-56
2022/11/28 00:59:31;;;;;;;15.33;8.50;;;;;;;4.42;100.00;101130.91;7392923;19;20398;-54
2022/11/28 01:02:00;;;;;;;21.90;8.63;;;;;;;4.30;100.00;101130.91;7386041;19;20467;-57
2022/11/28 01:04:32;;;;;;;14.80;8.27;;;;;;;4.38;100.00;101133.13;7390827;19;20413;-56
2022/11/28 01:07:01;;;;;;;13.10;7.37;;;;;;;4.30;100.00;101124.91;7390386;19;20412;-58
2022/11/28 01:09:31;;;;;;;18.73;7.93;;;;;;;4.30;100.00;101119.78;7392222;19;20379;-58
2022/11/28 01:12:00;;;;;;;14.60;7.90;;;;;;;4.36;100.00;101120.25;7388665;19;20437;-58
2022/11/28 01:14:30;;;;;;;15.60;8.30;;;;;;;4.29;100.00;101108.72;7393003;19;20387;-59
2022/11/28 01:17:00;;;;;;;17.77;8.33;;;;;;;4.27;100.00;101117.94;7390675;19;20787;-58
2022/11/28 01:19:32;;;;;;;14.30;7.60;;;;;;;4.36;100.00;101112.56;7392484;19;20932;-58
2022/11/28 01:22:01;;;;;;;17.83;8.20;;;;;;;4.26;100.00;101112.72;7389716;19;20438;-57
2022/11/28 01:24:31;;;;;;;17.57;8.63;;;;;;;4.37;100.00;101096.50;7388738;19;20768;-59
2022/11/28 01:27:00;;;;;;;13.93;7.63;;;;;;;4.38;100.00;101097.38;7390593;19;20434;-57
2022/11/28 01:29:30;;;;;;;21.60;7.63;;;;;;;4.33;100.00;101097.03;7392644;19;20380;-59
2022/11/28 01:31:59;;;;;;;15.70;7.70;;;;;;;4.24;100.00;101089.59;7389339;19;20437;-55
2022/11/28 01:34:31;;;;;;;17.37;8.77;;;;;;;4.33;100.00;101086.81;7392440;19;20384;-53
2022/11/28 01:37:01;;;;;;;16.10;8.03;;;;;;;4.27;100.00;101094.03;7389768;19;20865;-57
2022/11/28 01:39:31;;;;;;;15.30;7.77;;;;;;;4.43;100.00;101085.81;7392769;19;20383;-57
2022/11/28 01:42:00;;;;;;;13.80;7.57;;;;;;;4.36;100.00;101094.69;7389263;19;20415;-60
2022/11/28 01:45:03;;;;;;;17.47;8.00;;;;;;;4.29;100.00;101087.38;7390792;19;20388;-56
2022/11/28 01:47:32;;;;;;;17.30;8.90;;;;;;;4.21;100.00;101074.06;7391107;19;20418;-60
2022/11/28 01:50:05;;;;;;;15.10;7.80;;;;;;;4.26;100.00;101061.63;7391957;19;20392;-60
2022/11/28 01:52:35;;;;;;;14.40;7.37;;;;;;;4.17;100.00;101066.94;7388404;19;20431;-58
2022/11/28 01:55:05;;;;;;;14.97;7.17;;;;;;;4.15;100.00;101058.28;7391471;19;20419;-55
2022/11/28 01:57:35;;;;;;;12.60;7.47;;;;;;;4.25;100.00;101052.19;7388950;19;20786;-58
2022/11/28 02:00:09;;;;;;;15.13;7.83;;;;;;;4.26;100.00;101056.50;7395669;19;20399;-54
2022/11/28 02:02:41;;;;;;;15.70;7.70;;;;;;;4.30;100.00;101040.59;7387193;19;20411;-55
2022/11/28 02:05:13;;;;;;;14.90;7.93;;;;;;;4.32;100.00;101041.63;7390990;19;20964;-55
2022/11/28 02:07:43;;;;;;;14.30;6.90;;;;;;;4.39;100.00;101018.28;7389960;19;20433;-57
2022/11/28 02:10:15;;;;;;;34.00;16.63;;;;;;;4.53;100.00;101000.47;7391991;19;20403;-55
2022/11/28 02:13:12;;;;;;;14.73;7.80;;;;;;;4.40;100.00;100999.59;7387371;19;20439;-57
2022/11/28 02:16:06;;;;;;;15.00;8.00;;;;;;;4.36;100.00;101004.41;7387719;19;20423;-52
2022/11/28 02:18:45;;;;;;;25.77;12.60;;;;;;;4.25;100.00;100990.88;7394388;19;20443;-58
2022/11/28 02:21:40;;;;;;;16.57;8.57;;;;;;;4.27;100.00;100976.53;7388244;19;20440;-59
2022/11/28 02:24:34;;;;;;;19.07;7.87;;;;;;;4.41;100.00;100954.53;7392649;19;20420;-54
2022/11/28 02:27:17;;;;;;;16.77;9.77;;;;;;;4.26;100.00;100954.31;7388547;19;20440;-53
2022/11/28 02:30:00;;;;;;;17.70;8.30;;;;;;;4.23;100.00;100941.31;7393567;19;20415;-58
2022/11/28 02:33:05;;;;;;;10.77;6.80;;;;;;;4.14;100.00;100937.34;7388205;19;20422;-53
2022/11/28 02:35:38;;;;;;;11.57;7.37;;;;;;;4.17;100.00;100924.78;7394738;19;20387;-52
2022/11/28 02:38:16;;;;;;;16.60;7.87;;;;;;;4.18;100.00;100911.25;7394990;19;20418;-54
2022/11/28 02:40:53;;;;;;;17.90;7.97;;;;;;;4.18;100.00;100916.38;7398610;19;20395;-58
2022/11/28 02:43:26;;;;;;;20.57;8.30;;;;;;;4.19;100.00;100918.13;7395883;19;20525;-60
2022/11/28 02:45:59;;;;;;;13.30;7.20;;;;;;;4.27;100.00;100912.66;7395921;19;20383;-57
2022/11/28 02:48:33;;;;;;;12.33;6.73;;;;;;;4.34;100.00;100912.31;7397468;19;20955;-59
2022/11/28 02:51:07;;;;;;;11.33;6.63;;;;;;;4.25;100.00;100914.25;7394859;19;20394;-58
2022/11/28 02:53:38;;;;;;;12.17;6.80;;;;;;;4.16;100.00;100920.47;7395913;19;20424;-57
2022/11/28 02:56:08;;;;;;;18.27;7.97;;;;;;;4.19;100.00;100918.13;7397437;19;20410;-58
2022/11/28 02:58:38;;;;;;;19.70;9.27;;;;;;;4.10;100.00;100922.59;7397552;19;20387;-59
2022/11/28 03:01:11;;;;;;;16.40;7.67;;;;;;;4.15;100.00;100911.03;7394386;19;20415;-55
2022/11/28 03:04:10;;;;;;;19.80;9.20;;;;;;;4.18;100.00;100907.81;7394949;19;20434;-58
2022/11/28 03:06:50;;;;;;;15.40;6.87;;;;;;;4.08;100.00;100906.28;7394611;19;20411;-53
2022/11/28 03:09:52;;;;;;;18.17;8.53;;;;;;;4.07;100.00;100904.50;7397330;19;20779;-55
2022/11/28 03:12:27;;;;;;;14.07;7.37;;;;;;;4.12;100.00;100909.94;7393607;19;20438;-58
2022/11/28 03:14:58;;;;;;;14.80;7.80;;;;;;;4.15;100.00;100916.13;7398294;19;20403;-59
2022/11/28 03:17:35;;;;;;;14.33;6.80;;;;;;;4.15;100.00;100916.13;7394592;19;20403;-59
2022/11/28 03:20:15;;;;;;;13.00;7.27;;;;;;;4.13;100.00;100927.91;7396915;19;20391;-59
2022/11/28 03:22:56;;;;;;;13.93;6.70;;;;;;;4.24;100.00;100925.22;7393025;19;20987;-59
2022/11/28 03:25:29;;;;;;;11.67;6.27;;;;;;;4.23;100.00;100915.78;7394858;19;20773;-58
2022/11/28 03:28:02;;;;;;;17.70;6.97;;;;;;;4.20;100.00;100913.91;7394391;19;20410;-59
2022/11/28 03:30:37;;;;;;;14.00;7.20;;;;;;;4.21;100.00;100910.59;7396800;19;20418;-61
2022/11/28 03:33:08;;;;;;;12.13;6.70;;;;;;;4.21;100.00;100922.47;7391928;19;20441;-59
2022/11/28 03:35:41;;;;;;;19.90;7.50;;;;;;;4.14;100.00;100916.00;7396376;19;20392;-59
2022/11/28 03:38:15;;;;;;;10.07;6.00;;;;;;;4.10;100.00;100922.59;7393345;19;20423;-59
2022/11/28 03:40:46;;;;;;;14.67;6.30;;;;;;;4.24;100.00;100926.13;7396636;19;20384;-60
2022/11/28 03:43:18;;;;;;;10.63;6.50;;;;;;;4.29;100.00;100937.53;7391903;19;20423;-59
2022/11/28 03:45:50;;;;;;;18.63;8.30;;;;;;;4.22;100.00;100947.22;7393983;19;20411;-59
2022/11/28 03:48:23;;;;;;;16.10;7.10;;;;;;;4.15;100.00;100946.78;7393606;19;21300;-59
2022/11/28 03:50:56;;;;;;;14.10;6.30;;;;;;;4.09;100.00;100946.34;7393643;19;20416;-59
2022/11/28 03:53:32;;;;;;;15.07;6.43;;;;;;;4.10;100.00;100955.78;7394020;19;20454;-59
2022/11/28 03:56:04;;;;;;;12.03;7.00;;;;;;;4.06;100.00;100943.59;7397757;19;20762;-59
2022/11/28 03:58:38;;;;;;;23.03;10.73;;;;;;;4.07;100.00;100939.34;7395882;19;20726;-60
2022/11/28 04:01:10;;;;;;;12.63;6.67;;;;;;;3.97;100.00;100925.03;7392403;19;20371;-54
2022/11/28 04:03:47;;;;;;;11.70;6.63;;;;;;;3.99;100.00;100931.16;7393198;19;20435;-59
2022/11/28 04:06:19;;;;;;;11.20;6.80;;;;;;;3.93;100.00;100929.06;7392973;19;20410;-59
2022/11/28 04:08:57;;;;;;;13.53;7.10;;;;;;;3.96;100.00;100951.38;7395634;19;20414;-58
2022/11/28 04:11:30;;;;;;;16.83;7.13;;;;;;;3.95;100.00;100947.03;7393378;19;20942;-59
2022/11/28 04:14:04;;;;;;;16.87;7.73;;;;;;;4.09;100.00;100960.81;7393072;19;20756;-59
2022/11/28 04:16:36;;;;;;;14.83;7.70;;;;;;;4.04;100.00;100953.69;7393231;19;20437;-59
2022/11/28 04:19:11;;;;;;;12.10;6.87;;;;;;;4.00;100.00;100945.72;7394852;19;20729;-59
2022/11/28 04:21:45;;;;;;;16.80;7.07;;;;;;;3.90;100.00;100954.38;7392468;19;20410;-59
2022/11/28 04:24:20;;;;;;;11.67;7.20;;;;;;;3.86;100.00;100943.06;7392500;19;20411;-60
2022/11/28 04:26:53;;;;;;;43.23;20.60;;;;;;;3.92;100.00;100943.50;7393193;19;20434;-58
2022/11/28 04:29:25;;;;;;;16.90;8.30;;;;;;;3.89;100.00;100938.16;7395009;19;20919;-60
2022/11/28 04:31:57;;;;;;;13.20;7.77;;;;;;;3.84;100.00;100934.38;7391605;19;20988;-54
2022/11/28 04:34:27;;;;;;;15.63;7.20;;;;;;;3.82;100.00;100935.94;7394982;19;20705;-55
2022/11/28 04:37:00;;;;;;;13.00;7.13;;;;;;;3.82;100.00;100933.41;7391650;19;20427;-59
2022/11/28 04:39:39;;;;;;;12.40;6.90;;;;;;;3.75;100.00;100952.47;7395009;19;20470;-57
2022/11/28 04:42:12;;;;;;;13.93;7.70;;;;;;;3.83;100.00;100952.13;7390751;19;20437;-59
2022/11/28 04:44:45;;;;;;;14.97;7.60;;;;;;;3.80;100.00;100963.03;7393623;19;20407;-59
2022/11/28 04:47:15;;;;;;;14.37;7.53;;;;;;;3.78;100.00;100965.47;7391580;19;20423;-59
2022/11/28 04:49:45;;;;;;;17.40;8.30;;;;;;;3.76;100.00;100968.69;7393656;19;20391;-59
2022/11/28 04:52:17;;;;;;;15.63;7.80;;;;;;;3.75;100.00;100972.03;7392730;19;20442;-59
2022/11/28 04:54:54;;;;;;;14.60;7.97;;;;;;;3.78;100.00;100962.00;7393738;19;20741;-58
2022/11/28 04:57:28;;;;;;;13.70;7.30;;;;;;;3.72;100.00;100952.25;7391495;19;20419;-59
2022/11/28 04:59:58;;;;;;;17.20;6.90;;;;;;;3.83;100.00;100958.13;7393548;19;20410;-57
2022/11/28 05:02:29;;;;;;;14.70;7.80;;;;;;;3.79;100.00;100951.03;7388996;19;20419;-60
2022/11/28 05:04:58;;;;;;;15.87;7.53;;;;;;;3.77;100.00;100952.59;7392795;19;20419;-59
2022/11/28 05:07:28;;;;;;;13.97;7.97;;;;;;;3.77;100.00;100947.47;7390941;19;20502;-57
2022/11/28 05:10:00;;;;;;;16.57;7.60;;;;;;;3.78;100.00;100939.94;7393014;19;20375;-59
2022/11/28 05:12:30;;;;;;;14.83;8.10;;;;;;;3.72;100.00;100941.16;7389874;19;20431;-60
2022/11/28 05:14:59;;;;;;;13.17;7.60;;;;;;;3.79;100.00;100935.72;7393037;19;20499;-59
2022/11/28 05:17:28;;;;;;;15.40;7.37;;;;;;;3.74;100.00;100943.03;7390885;19;20411;-59
2022/11/28 05:19:58;;;;;;;13.37;7.87;;;;;;;3.68;100.00;100957.91;7392779;19;20391;-58
2022/11/28 05:22:28;;;;;;;13.33;7.67;;;;;;;3.62;100.00;100967.66;7389367;19;20453;-57
2022/11/28 05:25:00;;;;;;;13.63;7.63;;;;;;;3.62;100.00;100973.69;7392471;19;20400;-60
2022/11/28 05:27:29;;;;;;;11.80;7.40;;;;;;;3.65;100.00;100989.19;7390592;19;20419;-58
2022/11/28 05:29:59;;;;;;;14.10;7.13;;;;;;;3.61;100.00;100986.31;7392866;19;20418;-56
2022/11/28 05:32:30;;;;;;;16.90;8.50;;;;;;;3.69;100.00;100984.34;7389410;19;20434;-58
2022/11/28 05:35:00;;;;;;;15.77;8.00;;;;;;;3.64;100.00;100981.44;7392341;19;20422;-56
2022/11/28 05:37:30;;;;;;;15.67;7.60;;;;;;;3.62;100.00;100991.53;7389945;19;20410;-59
2022/11/28 05:40:02;;;;;;;18.90;7.90;;;;;;;3.64;100.00;100996.75;7392668;19;20952;-56
2022/11/28 05:42:34;;;;;;;17.33;7.57;;;;;;;3.73;100.00;100992.31;7388621;19;20438;-58
2022/11/28 05:45:04;;;;;;;14.30;7.97;;;;;;;3.65;100.00;100976.44;7391566;19;20422;-59
2022/11/28 05:47:34;;;;;;;14.70;7.50;;;;;;;3.72;100.00;100985.44;7389685;19;20415;-58
2022/11/28 05:50:03;;;;;;;15.50;6.83;;;;;;;3.71;100.00;100988.78;7392467;19;20428;-60
2022/11/28 05:52:33;;;;;;;16.13;8.27;;;;;;;3.75;100.00;100987.34;7388602;19;20441;-59
2022/11/28 05:55:05;;;;;;;17.60;8.80;;;;;;;3.77;100.00;100988.31;7392020;19;20391;-59
2022/11/28 05:57:35;;;;;;;14.00;7.93;;;;;;;3.70;100.00;100979.31;7389769;19;20959;-58
2022/11/28 06:00:05;;;;;;;23.27;9.30;;;;;;;3.68;100.00;100990.22;7393936;19;20395;-58
2022/11/28 06:02:36;;;;;;;17.87;7.70;;;;;;;3.63;100.00;100964.34;7388167;19;20435;-58
2022/11/28 06:05:07;;;;;;;13.87;7.80;;;;;;;3.58;100.00;100950.38;7391038;19;20387;-58
2022/11/28 06:07:56;;;;;;;15.00;7.60;;;;;;;3.58;100.00;100950.38;7389595;19;20991;-56
2022/11/28 06:10:28;;;;;;;16.80;8.07;;;;;;;3.54;100.00;100948.38;7390299;19;20858;-59
2022/11/28 06:12:57;;;;;;;18.20;8.27;;;;;;;3.56;100.00;100941.69;7388427;19;20411;-60
2022/11/28 06:15:27;;;;;;;14.83;7.67;;;;;;;3.56;100.00;100942.59;7391399;19;20388;-59
2022/11/28 06:17:57;;;;;;;21.03;9.57;;;;;;;3.59;100.00;100945.38;7389620;19;20788;-57
2022/11/28 06:20:26;;;;;;;16.53;8.70;;;;;;;3.63;100.00;100955.03;7391845;19;20935;-57
2022/11/28 06:22:56;;;;;;;13.00;7.40;;;;;;;3.63;100.00;100955.03;7387137;19;20972;-58
2022/11/28 06:25:28;;;;;;;21.83;11.17;;;;;;;3.73;100.00;100966.78;7395033;19;20399;-60
2022/11/28 06:27:57;;;;;;;13.73;7.80;;;;;;;3.76;100.00;100949.13;7389339;19;20419;-60
2022/11/28 06:30:27;;;;;;;15.60;8.83;;;;;;;3.77;100.00;100929.63;7391306;19;20400;-57
2022/11/28 06:32:56;;;;;;;21.53;8.90;;;;;;;3.70;100.00;100917.19;7387077;19;20442;-58
2022/11/28 06:35:25;;;;;;;14.60;8.10;;;;;;;3.70;100.00;100923.16;7391396;19;20404;-57
2022/11/28 06:37:55;;;;;;;13.93;7.87;;;;;;;3.70;100.00;100919.75;7388159;19;20419;-53
2022/11/28 06:40:25;;;;;;;13.77;7.60;;;;;;;3.74;100.00;100924.31;7390833;19;20400;-59
2022/11/28 06:42:57;;;;;;;16.47;7.87;;;;;;;3.69;100.00;100917.97;7388838;19;20442;-58
2022/11/28 06:45:26;;;;;;;15.57;8.97;;;;;;;3.63;100.00;100934.63;7390658;19;20418;-56
2022/11/28 06:47:56;;;;;;;18.00;8.90;;;;;;;3.66;100.00;100936.50;7388230;19;20427;-58
2022/11/28 06:50:25;;;;;;;15.33;8.37;;;;;;;3.65;100.00;100938.16;7390984;19;20410;-58
2022/11/28 06:52:55;;;;;;;15.83;8.50;;;;;;;3.67;100.00;100934.81;7386095;19;20415;-58
2022/11/28 06:55:25;;;;;;;19.80;8.47;;;;;;;3.73;100.00;100945.47;7390980;19;20387;-59
2022/11/28 06:57:57;;;;;;;19.27;8.33;;;;;;;3.64;100.00;100951.69;7389121;19;20465;-59
2022/11/28 07:00:27;;;;;;;15.00;8.47;;;;;;;3.76;100.00;100950.81;7390498;19;20419;-55
2022/11/28 07:02:57;;;;;;;13.73;7.97;;;;;;;3.71;100.00;100954.69;7385424;19;20440;-59
2022/11/28 07:05:27;;;;;;;28.53;13.83;;;;;;;3.71;100.00;100952.16;7389602;19;20395;-59
2022/11/28 07:07:56;;;;;;;17.30;8.80;;;;;;;3.75;100.00;100949.03;7387506;19;20426;-58
2022/11/28 07:10:26;;;;;;;21.77;10.40;;;;;;;3.73;100.00;100953.13;7389797;19;21039;-56
2022/11/28 07:12:59;;;;;;;21.47;8.80;;;;;;;3.61;100.00;100953.13;7385219;19;20789;-60
2022/11/28 07:15:33;;;;;;;18.87;10.47;;;;;;;3.63;100.00;100965.25;7389566;19;20951;-55
2022/11/28 07:18:03;;;;;;;17.83;8.60;;;;;;;3.56;100.00;100970.66;7387448;19;20411;-58
2022/11/28 07:20:32;;;;;;;16.90;8.37;;;;;;;3.64;100.00;100973.78;7389568;19;20380;-57
2022/11/28 07:23:02;;;;;;;19.10;9.30;;;;;;;3.74;100.00;100963.47;7389802;19;20442;-59
2022/11/28 07:25:31;;;;;;;16.23;9.20;;;;;;;3.70;100.00;100973.34;7396778;19;20420;-58
2022/11/28 07:28:03;;;;;;;17.33;9.30;;;;;;;3.64;100.00;100972.13;7393977;19;20419;-55
2022/11/28 07:30:33;;;;;;;18.17;8.93;;;;;;;3.58;100.00;100969.13;7397280;19;20379;-56
2022/11/28 07:33:02;;;;;;;16.37;8.97;;;;;;;3.52;100.00;100963.56;7392315;19;20415;-59
2022/11/28 07:35:32;;;;;;;15.60;9.03;;;;;;;3.54;100.00;100953.47;7396845;19;20387;-58
2022/11/28 07:38:01;;;;;;;20.20;8.90;;;;;;;3.56;100.00;100950.25;7393864;19;20433;-58
2022/11/28 07:40:31;;;;;;;16.50;8.73;;;;;;;3.55;100.00;100960.34;7396924;19;21191;-59
2022/11/28 07:43:00;;;;;;;19.07;9.87;;;;;;;3.57;100.00;100959.69;7392035;19;20411;-57
2022/11/28 07:45:32;;;;;;;17.80;9.67;;;;;;;3.63;100.00;100962.69;7396467;19;20387;-55
2022/11/28 07:48:21;;;;;;;15.70;8.00;;;;;;;3.60;100.00;100965.00;7395781;19;20451;-57
2022/11/28 07:50:51;;;;;;;20.87;10.77;;;;;;;3.65;100.00;100970.47;7396316;19;20387;-59
2022/11/28 07:53:20;;;;;;;17.07;9.87;;;;;;;3.67;100.00;100965.44;7393481;19;20427;-56
2022/11/28 07:55:50;;;;;;;22.47;9.33;;;;;;;3.64;100.00;100974.66;7396274;19;20388;-55
2022/11/28 07:58:20;;;;;;;18.03;9.07;;;;;;;3.70;100.00;100978.44;7395223;19;20423;-56
2022/11/28 08:00:53;;;;;;;19.07;10.70;;;;;;;3.72;100.00;100975.22;7396125;19;20387;-59
2022/11/28 08:03:22;;;;;;;16.93;9.40;;;;;;;3.70;100.00;100976.75;7393463;19;20435;-59
2022/11/28 08:05:52;;;;;;;20.10;9.57;;;;;;;3.83;100.00;100972.56;7395810;19;20394;-59
2022/11/28 08:08:21;;;;;;;16.93;9.63;;;;;;;3.79;100.00;100979.09;7393039;19;20430;-55
2022/11/28 08:10:51;;;;;;;18.10;9.17;;;;;;;3.88;100.00;100972.13;7395475;19;20920;-59
2022/11/28 08:13:20;;;;;;;22.80;9.50;;;;;;;3.91;100.00;100974.88;7393072;19;20418;-58
2022/11/28 08:15:52;;;;;;;20.50;10.50;;;;;;;4.09;100.00;100974.44;7395642;19;21011;-56
2022/11/28 08:18:22;;;;;;;18.80;10.60;;;;;;;3.98;100.00;100972.78;7392550;19;20435;-59
2022/11/28 08:20:51;;;;;;;21.20;10.30;;;;;;;3.97;100.00;100984.69;7395249;19;20388;-58
2022/11/28 08:23:21;;;;;;;27.10;11.60;;;;;;;4.08;100.00;100979.44;7394464;19;20964;-56
2022/11/28 08:25:50;;;;;;;17.90;10.60;;;;;;;4.11;100.00;100980.53;7394976;19;20766;-58
2022/11/28 08:28:20;;;;;;;19.03;9.07;;;;;;;4.24;100.00;100977.19;7392330;19;20430;-60
2022/11/28 08:30:49;;;;;;;16.30;9.77;;;;;;;4.15;100.00;100979.97;7395142;19;20402;-56
2022/11/28 08:33:21;;;;;;;20.93;11.00;;;;;;;4.10;100.00;100976.22;7391898;19;20422;-60
2022/11/28 08:35:51;;;;;;;19.63;10.07;;;;;;;3.99;100.00;100989.91;7395139;19;20391;-59
2022/11/28 08:38:22;;;;;;;22.07;10.50;;;;;;;3.97;100.00;100991.44;7397932;19;20811;-59
2022/11/28 08:40:51;;;;;;;33.33;14.20;;;;;;;4.20;100.00;100985.41;7394457;19;20947;-59
2022/11/28 08:43:21;;;;;;;24.27;11.30;;;;;;;4.20;100.00;100990.53;7392251;19;20422;-59
2022/11/28 08:45:50;;;;;;;20.70;10.07;;;;;;;4.08;100.00;100990.53;7394459;19;20754;-59
2022/11/28 08:48:22;;;;;;;18.53;10.43;;;;;;;4.06;100.00;100992.13;7391769;19;20443;-59
2022/11/28 08:50:53;;;;;;;21.60;11.50;;;;;;;4.08;100.00;100990.53;7394013;19;20384;-59
2022/11/28 08:53:22;;;;;;;21.00;11.40;;;;;;;4.13;100.00;100999.44;7392151;19;20419;-60
2022/11/28 08:55:52;;;;;;;24.83;11.27;;;;;;;4.16;100.00;100999.63;7397120;19;20399;-57
2022/11/28 08:58:22;;;;;;;24.33;11.30;;;;;;;4.12;100.00;101002.78;7392098;19;20426;-59
2022/11/28 09:00:51;;;;;;;22.33;11.87;;;;;;;4.08;100.00;101005.88;7393551;19;20384;-59
2022/11/28 09:03:23;;;;;;;23.87;12.20;;;;;;;4.25;100.00;101008.75;7391148;19;20430;-59
2022/11/28 09:05:54;;;;;;;20.63;11.57;;;;;;;4.22;100.00;101008.53;7392115;19;20936;-57
2022/11/28 09:08:23;;;;;;;22.03;11.23;;;;;;;4.32;100.00;101005.84;7392402;19;20440;-58
2022/11/28 09:10:53;;;;;;;22.07;11.50;;;;;;;4.28;100.00;101009.84;7391074;19;20750;-57
2022/11/28 09:13:22;;;;;;;26.63;11.70;;;;;;;4.17;100.00;101015.88;7392876;19;20443;-59
2022/11/28 09:15:52;;;;;;;24.60;10.63;;;;;;;4.23;100.00;101020.50;7395725;19;20392;-56
2022/11/28 09:18:25;;;;;;;19.70;11.20;;;;;;;4.35;100.00;101026.50;7393411;19;20451;-59
2022/11/28 09:20:59;;;;;;;23.27;11.70;;;;;;;4.42;100.00;101033.81;7388886;19;20395;-55
2022/11/28 09:23:29;;;;;;;22.50;11.43;;;;;;;4.37;100.00;101027.50;7395933;19;20419;-54
2022/11/28 09:25:59;;;;;;;21.17;10.07;;;;;;;4.32;100.00;101031.41;7390535;19;20387;-59
2022/11/28 09:28:28;;;;;;;19.83;11.40;;;;;;;4.48;100.00;101027.38;7391176;19;20387;-58
2022/11/28 09:31:02;;;;;;;19.80;10.20;;;;;;;4.50;100.00;101030.94;7391714;19;20399;-58
2022/11/28 09:33:35;;;;;;;25.00;12.27;;;;;;;4.42;100.00;101032.94;7391404;19;20451;-58
2022/11/28 09:36:09;;;;;;;23.47;10.17;;;;;;;4.38;100.00;101048.81;7390296;19;20379;-57
2022/11/28 09:38:39;;;;;;;17.47;10.37;;;;;;;4.21;100.00;101047.63;7392526;19;20415;-59
2022/11/28 09:41:38;;;;;;;20.70;10.83;;;;;;;4.16;100.00;101060.94;7389115;19;20916;-53
2022/11/28 09:44:11;;;;;;;22.97;11.13;;;;;;;4.24;100.00;101052.94;7389006;19;20415;-54
2022/11/28 09:46:41;;;;;;;22.83;11.27;;;;;;;4.18;100.00;101061.94;7389326;19;20954;-55
2022/11/28 09:49:21;;;;;;;20.37;10.00;;;;;;;4.21;100.00;101047.63;7394767;19;20399;-59
2022/11/28 09:51:54;;;;;;;16.20;9.50;;;;;;;4.24;100.00;101056.38;7388994;19;20411;-51
2022/11/28 09:54:29;;;;;;;19.00;9.60;;;;;;;4.19;100.00;101056.06;7390487;19;20423;-57
2022/11/28 09:56:58;;;;;;;17.03;9.60;;;;;;;4.24;100.00;101053.84;7389461;19;21024;-61
2022/11/28 09:59:30;;;;;;;23.00;10.90;;;;;;;4.21;100.00;101053.63;7391774;19;20410;-56
2022/11/28 10:02:08;;;;;;;22.63;11.87;;;;;;;4.38;100.00;101053.94;7388762;19;20772;-56
2022/11/28 10:04:43;;;;;;;19.90;10.17;;;;;;;4.32;100.00;101052.72;7395483;19;20414;-58
2022/11/28 10:07:21;;;;;;;18.63;10.63;;;;;;;4.24;100.00;101051.28;7390271;19;20431;-56
2022/11/28 10:09:57;;;;;;;21.43;10.70;;;;;;;4.28;100.00;101039.63;7391868;19;20976;-56
2022/11/28 10:12:39;;;;;;;23.57;10.83;;;;;;;4.25;100.00;101047.06;7389038;19;20477;-59
2022/11/28 10:15:15;;;;;;;22.47;9.83;;;;;;;4.23;100.00;101046.06;7394076;19;20403;-58
2022/11/28 10:17:51;;;;;;;27.40;9.43;;;;;;;4.22;100.00;101044.28;7389802;19;20431;-58
2022/11/28 10:20:25;;;;;;;29.90;14.83;;;;;;;4.28;100.00;101044.72;7390852;19;20758;-59
2022/11/28 10:22:58;;;;;;;21.40;11.50;;;;;;;4.36;100.00;101033.38;7391594;19;20467;-59
2022/11/28 10:25:30;;;;;;;23.30;11.63;;;;;;;4.39;100.00;101041.28;7391147;19;20801;-57
2022/11/28 10:28:00;;;;;;;20.33;11.20;;;;;;;4.42;100.00;101033.81;7388209;19;20453;-55
2022/11/28 10:30:33;;;;;;;21.50;10.70;;;;;;;4.51;100.00;101032.72;7395115;19;20396;-57
2022/11/28 10:33:05;;;;;;;20.43;11.20;;;;;;;4.43;100.00;101035.63;7387526;19;20518;-60
2022/11/28 10:35:43;;;;;;;28.17;12.97;;;;;;;4.43;100.00;101035.63;7391706;19;20407;-56
2022/11/28 10:38:14;;;;;;;18.47;9.90;;;;;;;4.41;100.00;101032.03;7388552;19;20435;-58
2022/11/28 10:40:49;;;;;;;21.13;10.00;;;;;;;4.42;100.00;101031.25;7391074;19;20410;-58
2022/11/28 10:43:29;;;;;;;17.50;9.53;;;;;;;4.43;100.00;101034.72;7389455;19;20414;-58
2022/11/28 10:46:06;;;;;;;19.77;10.60;;;;;;;4.40;100.00;101034.47;7388601;19;20410;-54
2022/11/28 10:48:42;;;;;;;17.10;9.43;;;;;;;4.29;100.00;101038.81;7389252;19;20384;-58
2022/11/28 10:51:21;;;;;;;22.90;9.37;;;;;;;4.31;100.00;101047.50;7388078;19;20396;-56
2022/11/28 10:54:01;;;;;;;21.63;9.60;;;;;;;4.31;100.00;101043.28;7388573;19;20427;-57
2022/11/28 10:56:38;;;;;;;22.00;9.87;;;;;;;4.35;100.00;101031.59;7390832;19;20411;-57
2022/11/28 10:59:13;;;;;;;21.07;9.60;;;;;;;4.31;100.00;101030.50;7397736;19;20392;-57
2022/11/28 11:01:42;;;;;;;23.30;9.27;;;;;;;4.39;100.00;101032.72;7393458;19;20430;-60
2022/11/28 11:04:21;;;;;;;17.50;9.07;;;;;;;4.30;100.00;101038.94;7396962;19;21011;-59
2022/11/28 11:07:03;;;;;;;17.13;9.13;;;;;;;4.33;100.00;101028.06;7394326;19;20415;-57
2022/11/28 11:09:44;;;;;;;21.70;10.70;;;;;;;4.19;100.00;101035.63;7394442;19;20487;-58
2022/11/28 11:12:17;;;;;;;20.37;9.90;;;;;;;4.20;100.00;101039.06;7392211;19;20404;-60
2022/11/28 11:14:47;;;;;;;19.20;9.77;;;;;;;4.16;100.00;101032.84;7397171;19;20387;-56
2022/11/28 11:17:28;;;;;;;19.37;9.17;;;;;;;4.06;100.00;101038.06;7394567;19;20419;-59
2022/11/28 11:20:04;;;;;;;22.07;10.07;;;;;;;4.01;100.00;101034.28;7396831;19;20467;-56
2022/11/28 11:22:36;;;;;;;23.27;11.67;;;;;;;4.10;100.00;101034.94;7396908;19;20451;-56
2022/11/28 11:25:08;;;;;;;20.30;11.37;;;;;;;3.97;100.00;101027.19;7396504;19;20388;-54
2022/11/28 11:27:38;;;;;;;25.70;10.77;;;;;;;4.02;100.00;101021.66;7394356;19;20418;-59
2022/11/28 11:30:19;;;;;;;24.93;10.20;;;;;;;4.04;100.00;101022.63;7393478;19;20388;-59
2022/11/28 11:32:49;;;;;;;24.30;10.07;;;;;;;3.90;100.00;101021.63;7392531;19;20447;-58
2022/11/28 11:35:23;;;;;;;18.83;10.23;;;;;;;3.90;100.00;101016.53;7394453;19;20958;-56
2022/11/28 11:38:17;;;;;;;18.43;9.50;;;;;;;3.94;100.00;101016.75;7390368;19;20406;-56
2022/11/28 11:40:47;;;;;;;20.43;9.90;;;;;;;3.93;100.00;101020.97;7389538;19;20462;-57